Time,TemperatureF,DewpointF,PressureIn,WindDirection,WindDirectionDegrees,WindSpeedMPH,WindSpeedGustMPH,Humidity,HourlyPrecipIn,Conditions,Clouds,dailyrainin,SoftwareType,DateUTC
2013-01-18 00:02:00,40.0,34.0,30.45,NNE,14,0.0,0.0,78,0.00,,,0.00,,2013-01-18 06:02:00,
2013-01-18 00:12:00,40.0,34.0,30.45,NNE,14,0.0,0.0,78,0.00,,,0.00,,2013-01-18 06:12:00,
2013-01-18 00:22:00,40.0,34.0,30.45,NNE,14,0.0,0.0,78,0.00,,,0.00,,2013-01-18 06:22:00,
2013-01-18 00:33:00,39.0,33.0,30.45,NNE,14,0.0,0.0,79,0.00,,,0.00,,2013-01-18 06:33:00,
2013-01-18 00:43:00,39.0,33.0,30.45,NNE,14,0.0,0.0,79,0.00,,,0.00,,2013-01-18 06:43:00,
2013-01-18 00:52:00,39.0,33.0,30.45,NNE,14,0.0,0.0,80,0.00,,,0.00,,2013-01-18 06:52:00,
2013-01-18 01:02:00,38.0,33.0,30.45,NNE,14,0.0,0.0,81,0.00,,,0.00,,2013-01-18 07:02:00,
2013-01-18 01:12:00,38.0,33.0,30.45,NNE,14,0.0,0.0,81,0.00,,,0.00,,2013-01-18 07:12:00,
2013-01-18 01:22:00,38.0,33.0,30.45,NNE,14,0.0,0.0,81,0.00,,,0.00,,2013-01-18 07:22:00,
2013-01-18 01:32:00,38.0,33.0,30.45,NNE,14,0.0,0.0,83,0.00,,,0.00,,2013-01-18 07:32:00,
2013-01-18 01:42:00,38.0,33.0,30.45,NNE,14,0.0,0.0,83,0.00,,,0.00,,2013-01-18 07:42:00,
2013-01-18 01:52:00,38.0,34.0,30.45,NNE,14,0.0,0.0,84,0.00,,,0.00,,2013-01-18 07:52:00,
2013-01-18 02:02:00,37.0,33.0,30.46,NNE,14,0.0,0.0,84,0.00,,,0.00,,2013-01-18 08:02:00,
2013-01-18 02:12:00,37.0,33.0,30.46,NNE,14,0.0,0.0,84,0.00,,,0.00,,2013-01-18 08:12:00,
2013-01-18 02:22:00,37.0,33.0,30.46,NNE,14,0.0,0.0,85,0.00,,,0.00,,2013-01-18 08:22:00,
2013-01-18 02:32:00,37.0,33.0,30.46,NNE,14,0.0,0.0,85,0.00,,,0.00,,2013-01-18 08:32:00,
2013-01-18 02:42:00,37.0,33.0,30.46,NNE,14,0.0,0.0,85,0.00,,,0.00,,2013-01-18 08:42:00,
2013-01-18 02:52:00,36.0,32.0,30.46,NNE,14,0.0,0.0,85,0.00,,,0.00,,2013-01-18 08:52:00,
2013-01-18 03:02:00,36.0,32.0,30.46,NNE,14,0.0,0.0,85,0.00,,,0.00,,2013-01-18 09:02:00,
2013-01-18 03:12:00,36.0,32.0,30.46,NNE,14,0.0,0.0,85,0.00,,,0.00,,2013-01-18 09:12:00,
2013-01-18 03:22:00,35.0,31.0,30.46,NNE,14,0.0,0.0,85,0.00,,,0.00,,2013-01-18 09:22:00,
2013-01-18 03:33:00,35.0,31.0,30.46,NNE,14,0.0,0.0,86,0.00,,,0.00,,2013-01-18 09:33:00,
2013-01-18 03:42:00,35.0,31.0,30.46,NNE,14,0.0,0.0,86,0.00,,,0.00,,2013-01-18 09:42:00,
2013-01-18 03:52:00,35.0,31.0,30.45,NNE,14,0.0,0.0,86,0.00,,,0.00,,2013-01-18 09:52:00,
2013-01-18 04:02:00,35.0,31.0,30.45,NNE,14,0.0,0.0,86,0.00,,,0.00,,2013-01-18 10:02:00,
2013-01-18 04:12:00,35.0,31.0,30.45,NNE,14,0.0,0.0,86,0.00,,,0.00,,2013-01-18 10:12:00,
2013-01-18 04:22:00,34.0,30.0,30.46,NNE,14,0.0,0.0,86,0.00,,,0.00,,2013-01-18 10:22:00,
2013-01-18 04:32:00,34.0,31.0,30.46,NNE,14,0.0,0.0,87,0.00,,,0.00,,2013-01-18 10:32:00,
2013-01-18 04:42:00,34.0,31.0,30.46,NNE,14,0.0,0.0,87,0.00,,,0.00,,2013-01-18 10:42:00,
2013-01-18 04:52:00,34.0,31.0,30.46,NNE,14,0.0,0.0,87,0.00,,,0.00,,2013-01-18 10:52:00,
2013-01-18 05:02:00,33.0,30.0,30.46,NNE,14,0.0,0.0,87,0.00,,,0.00,,2013-01-18 11:02:00,
2013-01-18 05:12:00,33.0,30.0,30.46,NNE,14,0.0,0.0,87,0.00,,,0.00,,2013-01-18 11:12:00,
2013-01-18 05:22:00,33.0,30.0,30.45,NNE,14,0.0,0.0,87,0.00,,,0.00,,2013-01-18 11:22:00,
2013-01-18 05:32:00,33.0,30.0,30.45,NNE,14,0.0,0.0,87,0.00,,,0.00,,2013-01-18 11:32:00,
2013-01-18 05:42:00,33.0,30.0,30.45,NNE,14,0.0,0.0,87,0.00,,,0.00,,2013-01-18 11:42:00,
2013-01-18 05:52:00,33.0,30.0,30.45,NNE,14,0.0,0.0,88,0.00,,,0.00,,2013-01-18 11:52:00,
2013-01-18 06:02:00,32.0,29.0,30.45,NNE,14,0.0,0.0,88,0.00,,,0.00,,2013-01-18 12:02:00,
2013-01-18 06:12:00,32.0,29.0,30.45,NNE,14,0.0,0.0,88,0.00,,,0.00,,2013-01-18 12:12:00,
2013-01-18 06:22:00,32.0,29.0,30.45,NNE,14,0.0,0.0,88,0.00,,,0.00,,2013-01-18 12:22:00,
2013-01-18 06:33:00,32.0,29.0,30.45,NNE,14,0.0,0.0,88,0.00,,,0.00,,2013-01-18 12:33:00,
2013-01-18 06:42:00,32.0,29.0,30.45,NNE,14,0.0,0.0,88,0.00,,,0.00,,2013-01-18 12:42:00,
2013-01-18 06:52:00,32.0,29.0,30.45,NNE,14,0.0,0.0,88,0.00,,,0.00,,2013-01-18 12:52:00,
2013-01-18 07:03:00,32.0,29.0,30.45,NNE,14,0.0,0.0,89,0.00,,,0.00,,2013-01-18 13:03:00,
2013-01-18 07:12:00,32.0,29.0,30.45,NNE,14,0.0,0.0,89,0.00,,,0.00,,2013-01-18 13:12:00,
2013-01-18 07:23:00,31.0,28.0,30.46,NNE,14,0.0,0.0,89,0.00,,,0.00,,2013-01-18 13:23:00,
2013-01-18 07:33:00,31.0,28.0,30.46,NNE,14,0.0,0.0,89,0.00,,,0.00,,2013-01-18 13:33:00,
2013-01-18 07:43:00,31.0,28.0,30.46,NNE,14,0.0,0.0,89,0.00,,,0.00,,2013-01-18 13:43:00,
2013-01-18 07:53:00,31.0,28.0,30.46,NNE,14,0.0,0.0,89,0.00,,,0.00,,2013-01-18 13:53:00,
2013-01-18 08:03:00,31.0,28.0,30.47,NNE,14,0.0,0.0,89,0.00,,,0.00,,2013-01-18 14:03:00,
2013-01-18 08:12:00,31.0,28.0,30.47,NNE,14,0.0,0.0,89,0.00,,,0.00,,2013-01-18 14:12:00,
2013-01-18 08:22:00,31.0,28.0,30.47,NNE,14,0.0,0.0,89,0.00,,,0.00,,2013-01-18 14:22:00,
2013-01-18 08:33:00,32.0,29.0,30.47,NNE,14,0.0,3.0,90,0.00,,,0.00,,2013-01-18 14:33:00,
2013-01-18 08:42:00,32.0,29.0,30.47,NNE,14,0.0,3.0,90,0.00,,,0.00,,2013-01-18 14:42:00,
2013-01-18 08:53:00,33.0,30.0,30.47,NNE,14,0.0,4.0,90,0.00,,,0.00,,2013-01-18 14:53:00,
2013-01-18 09:03:00,33.0,30.0,30.47,NNE,14,0.0,1.0,90,0.00,,,0.00,,2013-01-18 15:03:00,
2013-01-18 09:12:00,33.0,30.0,30.47,NNE,14,0.0,1.0,90,0.00,,,0.00,,2013-01-18 15:12:00,
2013-01-18 09:23:00,35.0,32.0,30.47,NNE,14,0.0,0.0,90,0.00,,,0.00,,2013-01-18 15:23:00,
2013-01-18 09:33:00,36.0,33.0,30.47,NNE,14,0.0,3.0,90,0.00,,,0.00,,2013-01-18 15:33:00,
2013-01-18 09:43:00,36.0,33.0,30.47,NNE,14,0.0,3.0,90,0.00,,,0.00,,2013-01-18 15:43:00,
2013-01-18 09:53:00,38.0,35.0,30.47,NNE,14,0.0,0.0,89,0.00,,,0.00,,2013-01-18 15:53:00,
2013-01-18 10:03:00,41.0,37.0,30.47,NNE,14,0.0,0.0,87,0.00,,,0.00,,2013-01-18 16:03:00,
2013-01-18 10:12:00,41.0,37.0,30.47,NNE,14,0.0,0.0,87,0.00,,,0.00,,2013-01-18 16:12:00,
2013-01-18 10:23:00,45.0,38.0,30.48,NNE,14,0.0,0.0,77,0.00,,,0.00,,2013-01-18 16:23:00,
2013-01-18 10:33:00,47.0,38.0,30.48,NNE,14,0.0,0.0,70,0.00,,,0.00,,2013-01-18 16:33:00,
2013-01-18 10:42:00,47.0,38.0,30.48,NNE,14,0.0,0.0,70,0.00,,,0.00,,2013-01-18 16:42:00,
2013-01-18 10:53:00,49.0,38.0,30.48,NNE,14,0.0,1.0,65,0.00,,,0.00,,2013-01-18 16:53:00,
2013-01-18 11:03:00,50.0,35.0,30.47,NNE,14,0.0,5.0,57,0.00,,,0.00,,2013-01-18 17:03:00,
2013-01-18 11:13:00,50.0,35.0,30.47,NNE,14,0.0,5.0,57,0.00,,,0.00,,2013-01-18 17:13:00,
2013-01-18 11:23:00,50.0,35.0,30.47,NNE,14,2.0,5.0,56,0.00,,,0.00,,2013-01-18 17:23:00,
2013-01-18 11:33:00,52.0,36.0,30.46,NNE,14,1.0,5.0,55,0.00,,,0.00,,2013-01-18 17:33:00,
2013-01-18 11:42:00,52.0,36.0,30.46,NNE,14,1.0,5.0,55,0.00,,,0.00,,2013-01-18 17:42:00,
2013-01-18 11:53:00,53.0,37.0,30.45,NNE,15,1.0,4.0,54,0.00,,,0.00,,2013-01-18 17:53:00,
2013-01-18 12:03:00,55.0,37.0,30.43,NNE,14,0.0,0.0,50,0.00,,,0.00,,2013-01-18 18:03:00,
2013-01-18 12:13:00,55.0,37.0,30.43,NNE,14,0.0,0.0,50,0.00,,,0.00,,2013-01-18 18:13:00,
2013-01-18 12:23:00,57.0,38.0,30.42,NNE,15,1.0,5.0,48,0.00,,,0.00,,2013-01-18 18:23:00,
2013-01-18 12:33:00,58.0,37.0,30.40,NNE,15,2.0,5.0,46,0.00,,,0.00,,2013-01-18 18:33:00,
2013-01-18 12:43:00,58.0,37.0,30.40,NNE,15,2.0,5.0,46,0.00,,,0.00,,2013-01-18 18:43:00,
2013-01-18 12:53:00,58.0,37.0,30.40,NNE,15,2.0,5.0,46,0.00,,,0.00,,2013-01-18 18:53:00,
2013-01-18 13:03:00,60.0,37.0,30.37,NNE,15,3.0,7.0,42,0.00,,,0.00,,2013-01-18 19:03:00,
2013-01-18 13:12:00,60.0,37.0,30.37,NNE,15,3.0,7.0,42,0.00,,,0.00,,2013-01-18 19:12:00,
2013-01-18 13:23:00,61.0,36.0,30.36,NE,52,3.0,10.0,39,0.00,,,0.00,,2013-01-18 19:23:00,
2013-01-18 13:33:00,63.0,36.0,30.34,SE,129,4.0,10.0,37,0.00,,,0.00,,2013-01-18 19:33:00,
2013-01-18 13:42:00,63.0,36.0,30.34,SE,129,4.0,10.0,37,0.00,,,0.00,,2013-01-18 19:42:00,
2013-01-18 13:53:00,62.0,35.0,30.33,SE,140,4.0,10.0,36,0.00,,,0.00,,2013-01-18 19:53:00,
2013-01-18 14:03:00,63.0,34.0,30.32,SE,146,2.0,9.0,34,0.00,,,0.00,,2013-01-18 20:03:00,
2013-01-18 14:12:00,63.0,34.0,30.32,SE,146,2.0,9.0,34,0.00,,,0.00,,2013-01-18 20:12:00,
2013-01-18 14:23:00,64.0,35.0,30.31,SSE,163,2.0,11.0,34,0.00,,,0.00,,2013-01-18 20:23:00,
2013-01-18 14:33:00,64.0,34.0,30.29,SSE,167,4.0,9.0,33,0.00,,,0.00,,2013-01-18 20:33:00,
2013-01-18 14:42:00,64.0,34.0,30.29,SSE,167,4.0,9.0,33,0.00,,,0.00,,2013-01-18 20:42:00,
2013-01-18 14:53:00,64.0,35.0,30.29,SSE,167,1.0,6.0,34,0.00,,,0.00,,2013-01-18 20:53:00,
2013-01-18 15:03:00,64.0,34.0,30.29,South,175,3.0,7.0,32,0.00,,,0.00,,2013-01-18 21:03:00,
2013-01-18 15:12:00,64.0,34.0,30.29,South,175,3.0,7.0,32,0.00,,,0.00,,2013-01-18 21:12:00,
2013-01-18 15:23:00,64.0,32.0,30.28,SSE,166,0.0,5.0,30,0.00,,,0.00,,2013-01-18 21:23:00,
2013-01-18 15:33:00,65.0,34.0,30.28,SSE,166,3.0,6.0,31,0.00,,,0.00,,2013-01-18 21:33:00,
2013-01-18 15:42:00,65.0,34.0,30.28,SSE,166,3.0,6.0,31,0.00,,,0.00,,2013-01-18 21:42:00,
2013-01-18 15:53:00,65.0,35.0,30.28,SSE,166,3.0,7.0,33,0.00,,,0.00,,2013-01-18 21:53:00,
2013-01-18 16:03:00,64.0,35.0,30.27,SSE,165,3.0,9.0,34,0.00,,,0.00,,2013-01-18 22:03:00,
2013-01-18 16:12:00,64.0,35.0,30.27,SSE,165,3.0,9.0,34,0.00,,,0.00,,2013-01-18 22:12:00,
2013-01-18 16:23:00,64.0,35.0,30.27,South,173,4.0,12.0,34,0.00,,,0.00,,2013-01-18 22:23:00,
2013-01-18 16:32:00,65.0,37.0,30.27,South,173,1.0,8.0,35,0.00,,,0.00,,2013-01-18 22:32:00,
2013-01-18 16:42:00,65.0,37.0,30.27,South,173,1.0,8.0,35,0.00,,,0.00,,2013-01-18 22:42:00,
2013-01-18 16:53:00,64.0,36.0,30.26,South,170,2.0,11.0,35,0.00,,,0.00,,2013-01-18 22:53:00,
2013-01-18 17:03:00,62.0,35.0,30.26,SSE,167,4.0,8.0,37,0.00,,,0.00,,2013-01-18 23:03:00,
2013-01-18 17:12:00,62.0,35.0,30.26,SSE,167,4.0,8.0,37,0.00,,,0.00,,2013-01-18 23:12:00,
2013-01-18 17:22:00,63.0,36.0,30.26,South,169,2.0,10.0,37,0.00,,,0.00,,2013-01-18 23:22:00,
2013-01-18 17:32:00,62.0,35.0,30.27,SSE,165,0.0,8.0,37,0.00,,,0.00,,2013-01-18 23:32:00,
2013-01-18 17:42:00,62.0,35.0,30.27,SSE,165,0.0,8.0,37,0.00,,,0.00,,2013-01-18 23:42:00,
2013-01-18 17:53:00,61.0,35.0,30.27,SSE,165,0.0,8.0,38,0.00,,,0.00,,2013-01-18 23:53:00,
2013-01-18 18:02:00,60.0,34.0,30.28,SSE,164,3.0,7.0,38,0.00,,,0.00,,2013-01-19 00:02:00,
2013-01-18 18:12:00,60.0,34.0,30.28,SSE,164,3.0,7.0,38,0.00,,,0.00,,2013-01-19 00:12:00,
2013-01-18 18:22:00,59.0,34.0,30.28,SSE,165,3.0,8.0,39,0.00,,,0.00,,2013-01-19 00:22:00,
2013-01-18 18:32:00,59.0,35.0,30.28,SSE,164,2.0,8.0,40,0.00,,,0.00,,2013-01-19 00:32:00,
2013-01-18 18:42:00,59.0,35.0,30.28,SSE,164,2.0,8.0,40,0.00,,,0.00,,2013-01-19 00:42:00,
2013-01-18 18:53:00,57.0,36.0,30.28,SSE,164,0.0,4.0,45,0.00,,,0.00,,2013-01-19 00:53:00,
2013-01-18 19:02:00,56.0,36.0,30.28,SSE,164,0.0,0.0,47,0.00,,,0.00,,2013-01-19 01:02:00,
2013-01-18 19:12:00,56.0,36.0,30.28,SSE,164,0.0,0.0,47,0.00,,,0.00,,2013-01-19 01:12:00,
2013-01-18 19:22:00,54.0,37.0,30.28,SSE,165,0.0,0.0,52,0.00,,,0.00,,2013-01-19 01:22:00,
2013-01-18 19:32:00,53.0,37.0,30.29,SSE,165,0.0,0.0,54,0.00,,,0.00,,2013-01-19 01:32:00,
2013-01-18 19:42:00,53.0,37.0,30.29,SSE,165,0.0,0.0,54,0.00,,,0.00,,2013-01-19 01:42:00,
2013-01-18 19:53:00,53.0,37.0,30.29,SSE,165,0.0,0.0,54,0.00,,,0.00,,2013-01-19 01:53:00,
2013-01-18 20:02:00,51.0,35.0,30.29,SSE,165,0.0,0.0,54,0.00,,,0.00,,2013-01-19 02:02:00,
2013-01-18 20:12:00,51.0,35.0,30.29,SSE,165,0.0,0.0,54,0.00,,,0.00,,2013-01-19 02:12:00,
2013-01-18 20:22:00,51.0,36.0,30.29,SSE,165,0.0,3.0,56,0.00,,,0.00,,2013-01-19 02:22:00,
2013-01-18 20:33:00,49.0,35.0,30.29,SSE,165,0.0,0.0,59,0.00,,,0.00,,2013-01-19 02:33:00,
2013-01-18 20:42:00,49.0,35.0,30.29,SSE,165,0.0,0.0,59,0.00,,,0.00,,2013-01-19 02:42:00,
2013-01-18 20:53:00,49.0,35.0,30.29,SSE,165,0.0,0.0,59,0.00,,,0.00,,2013-01-19 02:53:00,
2013-01-18 21:03:00,48.0,35.0,30.29,SSE,165,0.0,0.0,61,0.00,,,0.00,,2013-01-19 03:03:00,
2013-01-18 21:12:00,48.0,35.0,30.29,SSE,165,0.0,0.0,61,0.00,,,0.00,,2013-01-19 03:12:00,
2013-01-18 21:22:00,48.0,35.0,30.29,SSE,164,0.0,0.0,60,0.00,,,0.00,,2013-01-19 03:22:00,
2013-01-18 21:33:00,48.0,35.0,30.29,SSE,165,0.0,0.0,60,0.00,,,0.00,,2013-01-19 03:33:00,
2013-01-18 21:43:00,48.0,35.0,30.29,SSE,165,0.0,0.0,60,0.00,,,0.00,,2013-01-19 03:43:00,
2013-01-18 21:52:00,48.0,35.0,30.29,SSE,164,0.0,0.0,61,0.00,,,0.00,,2013-01-19 03:52:00,
2013-01-18 22:02:00,48.0,35.0,30.29,SSE,165,0.0,0.0,61,0.00,,,0.00,,2013-01-19 04:02:00,
2013-01-18 22:12:00,48.0,35.0,30.29,SSE,165,0.0,0.0,61,0.00,,,0.00,,2013-01-19 04:12:00,
2013-01-18 22:22:00,47.0,35.0,30.29,SSE,165,2.0,4.0,64,0.00,,,0.00,,2013-01-19 04:22:00,
2013-01-18 22:32:00,46.0,35.0,30.29,SSE,165,0.0,0.0,64,0.00,,,0.00,,2013-01-19 04:32:00,
2013-01-18 22:42:00,46.0,35.0,30.29,SSE,165,0.0,0.0,64,0.00,,,0.00,,2013-01-19 04:42:00,
2013-01-18 22:53:00,46.0,35.0,30.29,SSE,164,0.0,0.0,66,0.00,,,0.00,,2013-01-19 04:53:00,
2013-01-18 23:03:00,46.0,35.0,30.29,SSE,164,3.0,5.0,66,0.00,,,0.00,,2013-01-19 05:03:00,
2013-01-18 23:12:00,46.0,35.0,30.29,SSE,164,3.0,5.0,66,0.00,,,0.00,,2013-01-19 05:12:00,
2013-01-18 23:22:00,48.0,36.0,30.29,SSE,165,5.0,9.0,62,0.00,,,0.00,,2013-01-19 05:22:00,
2013-01-18 23:32:00,49.0,36.0,30.28,SSE,165,3.0,9.0,60,0.00,,,0.00,,2013-01-19 05:32:00,
2013-01-18 23:42:00,49.0,36.0,30.28,SSE,165,3.0,9.0,60,0.00,,,0.00,,2013-01-19 05:42:00,
2013-01-18 23:53:00,49.0,35.0,30.28,SSE,165,4.0,8.0,59,0.00,,,0.00,,2013-01-19 05:53:00,